sensor_id;sensor_type;location;lat;lon;timestamp;P1;durP1;ratioP1;P2;durP2;ratioP2
14774;SDS011;7479;47.042;15.160;2023-06-01T05:05:26;9.38;;;7.85;;
14774;SDS011;7479;47.042;15.160;2023-06-01T05:17:10;11.20;;;7.22;;
14774;SDS011;7479;47.042;15.160;2023-06-01T05:22:04;10.05;;;7.13;;
14774;SDS011;7479;47.042;15.160;2023-06-01T05:32:57;8.70;;;7.43;;
14774;SDS011;7479;47.042;15.160;2023-06-01T05:37:51;10.73;;;7.35;;
14774;SDS011;7479;47.042;15.160;2023-06-01T05:42:44;10.02;;;6.95;;
14774;SDS011;7479;47.042;15.160;2023-06-01T05:47:38;10.57;;;6.60;;
14774;SDS011;7479;47.042;15.160;2023-06-01T05:52:34;8.25;;;6.40;;
14774;SDS011;7479;47.042;15.160;2023-06-01T05:57:27;9.88;;;7.43;;
14774;SDS011;7479;47.042;15.160;2023-06-01T06:02:21;10.00;;;7.05;;
14774;SDS011;7479;47.042;15.160;2023-06-01T06:07:14;9.60;;;7.10;;
14774;SDS011;7479;47.042;15.160;2023-06-01T06:12:09;11.02;;;7.00;;
14774;SDS011;7479;47.042;15.160;2023-06-01T06:17:03;10.68;;;6.78;;
14774;SDS011;7479;47.042;15.160;2023-06-01T06:21:57;9.27;;;6.80;;
14774;SDS011;7479;47.042;15.160;2023-06-01T06:26:51;7.82;;;6.70;;
14774;SDS011;7479;47.042;15.160;2023-06-01T06:31:46;9.70;;;6.45;;
14774;SDS011;7479;47.042;15.160;2023-06-01T06:36:40;7.45;;;6.55;;
14774;SDS011;7479;47.042;15.160;2023-06-01T06:41:34;7.32;;;6.35;;
14774;SDS011;7479;47.042;15.160;2023-06-01T06:46:28;7.97;;;6.88;;
14774;SDS011;7479;47.042;15.160;2023-06-01T06:51:22;9.23;;;6.93;;
14774;SDS011;7479;47.042;15.160;2023-06-01T06:56:16;9.82;;;7.28;;
14774;SDS011;7479;47.042;15.160;2023-06-01T07:01:10;11.57;;;6.95;;
14774;SDS011;7479;47.042;15.160;2023-06-01T07:06:03;8.65;;;6.40;;
14774;SDS011;7479;47.042;15.160;2023-06-01T07:10:59;10.77;;;6.10;;
14774;SDS011;7479;47.042;15.160;2023-06-01T07:15:53;6.05;;;5.40;;
14774;SDS011;7479;47.042;15.160;2023-06-01T07:20:47;6.72;;;5.90;;
14774;SDS011;7479;47.042;15.160;2023-06-01T07:25:40;8.20;;;5.43;;
14774;SDS011;7479;47.042;15.160;2023-06-01T07:30:35;12.55;;;5.18;;
14774;SDS011;7479;47.042;15.160;2023-06-01T07:35:28;8.50;;;5.68;;
14774;SDS011;7479;47.042;15.160;2023-06-01T07:40:24;9.57;;;5.18;;
14774;SDS011;7479;47.042;15.160;2023-06-01T07:45:17;8.45;;;5.88;;
14774;SDS011;7479;47.042;15.160;2023-06-01T07:50:12;8.32;;;5.20;;
14774;SDS011;7479;47.042;15.160;2023-06-01T07:55:06;7.35;;;5.78;;
14774;SDS011;7479;47.042;15.160;2023-06-01T08:00:01;9.80;;;4.60;;
14774;SDS011;7479;47.042;15.160;2023-06-01T08:05:00;6.60;;;5.00;;
14774;SDS011;7479;47.042;15.160;2023-06-01T08:09:55;7.32;;;4.70;;
14774;SDS011;7479;47.042;15.160;2023-06-01T08:14:49;7.97;;;5.25;;
14774;SDS011;7479;47.042;15.160;2023-06-01T08:19:42;6.25;;;4.70;;
14774;SDS011;7479;47.042;15.160;2023-06-01T08:24:36;8.07;;;4.60;;
14774;SDS011;7479;47.042;15.160;2023-06-01T08:29:31;9.65;;;5.30;;
14774;SDS011;7479;47.042;15.160;2023-06-01T08:34:33;9.40;;;5.15;;
14774;SDS011;7479;47.042;15.160;2023-06-01T08:39:27;6.50;;;4.78;;
14774;SDS011;7479;47.042;15.160;2023-06-01T08:44:20;5.75;;;4.70;;
14774;SDS011;7479;47.042;15.160;2023-06-01T08:49:20;8.85;;;5.85;;
14774;SDS011;7479;47.042;15.160;2023-06-01T08:54:16;8.88;;;4.82;;
14774;SDS011;7479;47.042;15.160;2023-06-01T08:59:09;9.07;;;5.45;;
14774;SDS011;7479;47.042;15.160;2023-06-01T09:04:05;8.05;;;5.72;;
14774;SDS011;7479;47.042;15.160;2023-06-01T09:09:01;10.35;;;6.53;;
14774;SDS011;7479;47.042;15.160;2023-06-01T09:13:56;8.02;;;5.90;;
14774;SDS011;7479;47.042;15.160;2023-06-01T09:18:52;11.75;;;6.00;;
14774;SDS011;7479;47.042;15.160;2023-06-01T09:23:46;8.45;;;5.85;;
14774;SDS011;7479;47.042;15.160;2023-06-01T09:33:56;9.20;;;5.50;;
14774;SDS011;7479;47.042;15.160;2023-06-01T09:38:56;8.50;;;5.22;;
14774;SDS011;7479;47.042;15.160;2023-06-01T09:43:53;9.23;;;5.28;;
14774;SDS011;7479;47.042;15.160;2023-06-01T09:48:48;8.70;;;6.20;;
14774;SDS011;7479;47.042;15.160;2023-06-01T09:53:42;9.40;;;5.55;;
14774;SDS011;7479;47.042;15.160;2023-06-01T09:58:36;11.68;;;5.65;;
14774;SDS011;7479;47.042;15.160;2023-06-01T10:03:32;8.93;;;5.80;;
14774;SDS011;7479;47.042;15.160;2023-06-01T10:08:28;12.05;;;6.70;;
14774;SDS011;7479;47.042;15.160;2023-06-01T10:13:23;9.23;;;5.40;;
14774;SDS011;7479;47.042;15.160;2023-06-01T10:18:17;7.15;;;5.60;;
14774;SDS011;7479;47.042;15.160;2023-06-01T10:23:11;8.57;;;5.40;;
14774;SDS011;7479;47.042;15.160;2023-06-01T10:28:11;8.70;;;5.32;;
14774;SDS011;7479;47.042;15.160;2023-06-01T10:33:06;8.30;;;5.30;;
14774;SDS011;7479;47.042;15.160;2023-06-01T10:53:44;9.07;;;5.30;;
14774;SDS011;7479;47.042;15.160;2023-06-01T10:58:38;6.43;;;5.43;;
14774;SDS011;7479;47.042;15.160;2023-06-01T11:03:46;6.22;;;5.60;;
14774;SDS011;7479;47.042;15.160;2023-06-01T11:14:07;5.95;;;5.18;;
14774;SDS011;7479;47.042;15.160;2023-06-01T11:19:05;7.45;;;5.90;;
14774;SDS011;7479;47.042;15.160;2023-06-01T11:24:00;7.90;;;5.95;;
14774;SDS011;7479;47.042;15.160;2023-06-01T11:29:06;8.38;;;6.10;;
14774;SDS011;7479;47.042;15.160;2023-06-01T11:34:06;6.80;;;5.70;;
14774;SDS011;7479;47.042;15.160;2023-06-01T11:39:00;6.72;;;5.55;;
14774;SDS011;7479;47.042;15.160;2023-06-01T11:44:10;9.82;;;6.22;;
14774;SDS011;7479;47.042;15.160;2023-06-01T11:49:05;7.15;;;6.45;;
14774;SDS011;7479;47.042;15.160;2023-06-01T11:54:01;6.70;;;5.88;;
14774;SDS011;7479;47.042;15.160;2023-06-01T11:58:56;7.60;;;5.97;;
14774;SDS011;7479;47.042;15.160;2023-06-01T12:03:51;6.15;;;5.47;;
14774;SDS011;7479;47.042;15.160;2023-06-01T12:08:46;9.57;;;6.32;;
14774;SDS011;7479;47.042;15.160;2023-06-01T12:13:42;8.02;;;6.50;;
14774;SDS011;7479;47.042;15.160;2023-06-01T12:18:37;8.85;;;5.70;;
14774;SDS011;7479;47.042;15.160;2023-06-01T12:23:30;8.93;;;6.13;;
14774;SDS011;7479;47.042;15.160;2023-06-01T12:28:26;10.30;;;6.68;;
14774;SDS011;7479;47.042;15.160;2023-06-01T12:33:30;9.48;;;6.82;;
14774;SDS011;7479;47.042;15.160;2023-06-01T12:38:25;8.68;;;6.35;;
14774;SDS011;7479;47.042;15.160;2023-06-01T12:43:19;7.78;;;5.70;;
14774;SDS011;7479;47.042;15.160;2023-06-01T12:53:26;7.95;;;5.40;;
14774;SDS011;7479;47.042;15.160;2023-06-01T12:58:20;10.18;;;6.72;;
14774;SDS011;7479;47.042;15.160;2023-06-01T13:03:14;7.00;;;5.75;;
14774;SDS011;7479;47.042;15.160;2023-06-01T13:08:09;7.45;;;5.60;;
14774;SDS011;7479;47.042;15.160;2023-06-01T13:13:03;8.55;;;5.97;;
14774;SDS011;7479;47.042;15.160;2023-06-01T13:17:56;7.90;;;5.65;;
14774;SDS011;7479;47.042;15.160;2023-06-01T13:22:50;8.63;;;5.75;;
14774;SDS011;7479;47.042;15.160;2023-06-01T13:27:45;7.43;;;5.72;;
14774;SDS011;7479;47.042;15.160;2023-06-01T13:32:39;11.40;;;6.13;;
14774;SDS011;7479;47.042;15.160;2023-06-01T13:37:32;8.05;;;6.20;;
14774;SDS011;7479;47.042;15.160;2023-06-01T13:42:27;9.20;;;6.47;;
14774;SDS011;7479;47.042;15.160;2023-06-01T13:47:23;6.50;;;5.80;;
14774;SDS011;7479;47.042;15.160;2023-06-01T13:52:16;9.45;;;5.88;;
14774;SDS011;7479;47.042;15.160;2023-06-01T13:57:10;9.70;;;5.72;;
14774;SDS011;7479;47.042;15.160;2023-06-01T14:02:04;9.52;;;5.38;;
14774;SDS011;7479;47.042;15.160;2023-06-01T14:07:00;7.00;;;5.85;;
14774;SDS011;7479;47.042;15.160;2023-06-01T14:11:53;10.38;;;5.68;;
14774;SDS011;7479;47.042;15.160;2023-06-01T14:16:47;10.50;;;6.03;;
14774;SDS011;7479;47.042;15.160;2023-06-01T14:21:40;7.75;;;5.68;;
14774;SDS011;7479;47.042;15.160;2023-06-01T14:26:35;7.57;;;5.78;;
14774;SDS011;7479;47.042;15.160;2023-06-01T14:31:29;8.90;;;5.60;;
14774;SDS011;7479;47.042;15.160;2023-06-01T14:36:22;7.35;;;5.88;;
14774;SDS011;7479;47.042;15.160;2023-06-01T14:41:38;7.25;;;5.53;;
14774;SDS011;7479;47.042;15.160;2023-06-01T14:46:35;8.60;;;5.65;;
14774;SDS011;7479;47.042;15.160;2023-06-01T14:51:29;7.18;;;5.63;;
14774;SDS011;7479;47.042;15.160;2023-06-01T14:56:23;8.40;;;5.63;;
14774;SDS011;7479;47.042;15.160;2023-06-01T15:01:19;8.30;;;5.68;;
14774;SDS011;7479;47.042;15.160;2023-06-01T15:06:12;7.95;;;6.05;;
14774;SDS011;7479;47.042;15.160;2023-06-01T15:11:06;8.30;;;5.45;;
14774;SDS011;7479;47.042;15.160;2023-06-01T15:15:59;6.55;;;5.80;;
14774;SDS011;7479;47.042;15.160;2023-06-01T15:20:54;9.32;;;6.03;;
14774;SDS011;7479;47.042;15.160;2023-06-01T15:25:49;13.60;;;5.95;;
14774;SDS011;7479;47.042;15.160;2023-06-01T15:30:42;8.32;;;5.43;;
14774;SDS011;7479;47.042;15.160;2023-06-01T15:35:36;6.55;;;5.50;;
14774;SDS011;7479;47.042;15.160;2023-06-01T15:40:30;7.70;;;5.40;;
14774;SDS011;7479;47.042;15.160;2023-06-01T15:45:24;6.32;;;5.45;;
14774;SDS011;7479;47.042;15.160;2023-06-01T15:50:18;7.53;;;5.82;;
14774;SDS011;7479;47.042;15.160;2023-06-01T15:55:12;6.88;;;5.65;;
14774;SDS011;7479;47.042;15.160;2023-06-01T16:00:09;7.35;;;5.72;;
14774;SDS011;7479;47.042;15.160;2023-06-01T16:05:05;6.38;;;5.78;;
14774;SDS011;7479;47.042;15.160;2023-06-01T16:09:59;11.35;;;6.03;;
14774;SDS011;7479;47.042;15.160;2023-06-01T16:14:52;8.65;;;6.22;;
14774;SDS011;7479;47.042;15.160;2023-06-01T16:19:47;8.60;;;5.95;;
14774;SDS011;7479;47.042;15.160;2023-06-01T16:24:40;9.10;;;6.00;;
14774;SDS011;7479;47.042;15.160;2023-06-01T16:29:34;10.50;;;6.30;;
14774;SDS011;7479;47.042;15.160;2023-06-01T16:34:28;10.85;;;6.15;;
14774;SDS011;7479;47.042;15.160;2023-06-01T16:39:23;13.13;;;6.28;;
14774;SDS011;7479;47.042;15.160;2023-06-01T16:44:16;8.45;;;6.22;;
14774;SDS011;7479;47.042;15.160;2023-06-01T16:49:09;8.90;;;6.65;;
14774;SDS011;7479;47.042;15.160;2023-06-01T16:54:03;9.80;;;6.75;;
14774;SDS011;7479;47.042;15.160;2023-06-01T16:58:58;10.52;;;6.57;;
14774;SDS011;7479;47.042;15.160;2023-06-01T17:03:52;6.10;;;5.10;;
14774;SDS011;7479;47.042;15.160;2023-06-01T17:08:46;6.18;;;4.82;;
14774;SDS011;7479;47.042;15.160;2023-06-01T17:13:39;5.10;;;4.60;;
14774;SDS011;7479;47.042;15.160;2023-06-01T17:18:34;4.68;;;4.25;;
14774;SDS011;7479;47.042;15.160;2023-06-01T17:23:28;4.85;;;3.90;;
14774;SDS011;7479;47.042;15.160;2023-06-01T17:28:21;4.57;;;3.80;;
14774;SDS011;7479;47.042;15.160;2023-06-01T17:33:14;5.40;;;3.30;;
14774;SDS011;7479;47.042;15.160;2023-06-01T17:38:10;5.20;;;3.53;;
14774;SDS011;7479;47.042;15.160;2023-06-01T17:43:04;4.03;;;2.72;;
14774;SDS011;7479;47.042;15.160;2023-06-01T17:47:58;4.25;;;2.65;;
14774;SDS011;7479;47.042;15.160;2023-06-01T17:52:51;4.55;;;2.75;;
14774;SDS011;7479;47.042;15.160;2023-06-01T17:57:46;3.83;;;2.85;;
14774;SDS011;7479;47.042;15.160;2023-06-01T18:02:40;3.33;;;2.75;;
14774;SDS011;7479;47.042;15.160;2023-06-01T18:07:33;5.47;;;2.70;;
14774;SDS011;7479;47.042;15.160;2023-06-01T18:12:27;3.03;;;2.72;;
14774;SDS011;7479;47.042;15.160;2023-06-01T18:17:23;3.85;;;2.95;;
14774;SDS011;7479;47.042;15.160;2023-06-01T18:22:16;3.58;;;2.97;;
14774;SDS011;7479;47.042;15.160;2023-06-01T18:27:10;4.80;;;3.42;;
14774;SDS011;7479;47.042;15.160;2023-06-01T18:32:04;3.47;;;3.17;;
14774;SDS011;7479;47.042;15.160;2023-06-01T18:37:00;5.75;;;3.45;;
14774;SDS011;7479;47.042;15.160;2023-06-01T18:41:54;4.50;;;3.08;;
14774;SDS011;7479;47.042;15.160;2023-06-01T18:46:47;5.20;;;3.97;;
14774;SDS011;7479;47.042;15.160;2023-06-01T18:51:40;7.80;;;3.80;;
14774;SDS011;7479;47.042;15.160;2023-06-01T18:56:35;4.50;;;3.58;;
14774;SDS011;7479;47.042;15.160;2023-06-01T19:01:29;6.82;;;3.85;;
14774;SDS011;7479;47.042;15.160;2023-06-01T19:06:22;5.07;;;3.80;;
14774;SDS011;7479;47.042;15.160;2023-06-01T19:11:16;6.72;;;4.57;;
14774;SDS011;7479;47.042;15.160;2023-06-01T19:16:13;6.93;;;3.90;;
14774;SDS011;7479;47.042;15.160;2023-06-01T19:21:11;5.45;;;4.10;;
14774;SDS011;7479;47.042;15.160;2023-06-01T19:26:06;4.80;;;4.03;;
14774;SDS011;7479;47.042;15.160;2023-06-01T19:31:00;5.40;;;4.03;;
14774;SDS011;7479;47.042;15.160;2023-06-01T19:35:55;4.25;;;3.50;;
14774;SDS011;7479;47.042;15.160;2023-06-01T19:40:51;7.57;;;4.35;;
14774;SDS011;7479;47.042;15.160;2023-06-01T19:45:45;5.28;;;4.00;;
14774;SDS011;7479;47.042;15.160;2023-06-01T19:50:40;4.45;;;3.80;;
14774;SDS011;7479;47.042;15.160;2023-06-01T19:55:43;4.00;;;3.50;;
14774;SDS011;7479;47.042;15.160;2023-06-01T20:00:37;4.28;;;3.85;;
14774;SDS011;7479;47.042;15.160;2023-06-01T20:05:31;4.53;;;3.70;;
14774;SDS011;7479;47.042;15.160;2023-06-01T20:10:26;4.20;;;3.47;;
14774;SDS011;7479;47.042;15.160;2023-06-01T20:15:26;4.75;;;3.83;;
14774;SDS011;7479;47.042;15.160;2023-06-01T20:20:22;5.57;;;3.80;;
14774;SDS011;7479;47.042;15.160;2023-06-01T20:25:18;4.00;;;3.60;;
14774;SDS011;7479;47.042;15.160;2023-06-01T20:36:00;4.07;;;3.67;;
14774;SDS011;7479;47.042;15.160;2023-06-01T20:41:05;5.88;;;3.75;;
14774;SDS011;7479;47.042;15.160;2023-06-01T20:46:01;3.50;;;3.20;;
14774;SDS011;7479;47.042;15.160;2023-06-01T20:51:00;4.30;;;3.58;;
14774;SDS011;7479;47.042;15.160;2023-06-01T20:55:54;5.20;;;3.80;;
14774;SDS011;7479;47.042;15.160;2023-06-01T21:00:47;4.00;;;3.60;;
14774;SDS011;7479;47.042;15.160;2023-06-01T21:05:41;5.37;;;4.07;;
14774;SDS011;7479;47.042;15.160;2023-06-01T21:10:36;5.00;;;3.73;;
14774;SDS011;7479;47.042;15.160;2023-06-01T21:15:29;4.67;;;3.83;;
14774;SDS011;7479;47.042;15.160;2023-06-01T21:20:24;5.83;;;3.87;;
14774;SDS011;7479;47.042;15.160;2023-06-01T21:25:19;4.13;;;3.72;;
14774;SDS011;7479;47.042;15.160;2023-06-01T21:30:14;5.15;;;3.58;;
14774;SDS011;7479;47.042;15.160;2023-06-01T21:35:07;3.83;;;3.50;;
14774;SDS011;7479;47.042;15.160;2023-06-01T21:40:01;4.93;;;3.50;;
14774;SDS011;7479;47.042;15.160;2023-06-01T21:44:55;6.60;;;3.63;;
14774;SDS011;7479;47.042;15.160;2023-06-01T21:49:50;3.67;;;3.37;;
14774;SDS011;7479;47.042;15.160;2023-06-01T21:54:43;4.63;;;3.63;;
14774;SDS011;7479;47.042;15.160;2023-06-01T21:59:37;4.07;;;3.17;;
14774;SDS011;7479;47.042;15.160;2023-06-01T22:04:31;4.17;;;3.23;;
14774;SDS011;7479;47.042;15.160;2023-06-01T22:09:26;6.67;;;3.97;;
